sensor_id;sensor_type;location;lat;lon;timestamp;pressure;altitude;pressure_sealevel;temperature;humidity
56582;BME280;42463;52.214;21.238;2022-10-28T00:01:06;101413.64;;;11.89;68.43
56582;BME280;42463;52.214;21.238;2022-10-28T00:03:31;101410.85;;;11.88;68.31
56582;BME280;42463;52.214;21.238;2022-10-28T00:06:01;101405.21;;;11.86;68.46
56582;BME280;42463;52.214;21.238;2022-10-28T00:08:26;101399.11;;;11.86;68.26
56582;BME280;42463;52.214;21.238;2022-10-28T00:10:59;101403.34;;;11.85;68.48
56582;BME280;42463;52.214;21.238;2022-10-28T00:13:24;101404.08;;;11.84;68.48
56582;BME280;42463;52.214;21.238;2022-10-28T00:15:48;101405.61;;;11.85;68.41
56582;BME280;42463;52.214;21.238;2022-10-28T00:18:13;101410.73;;;11.83;68.11
56582;BME280;42463;52.214;21.238;2022-10-28T00:20:37;101405.38;;;11.81;68.21
56582;BME280;42463;52.214;21.238;2022-10-28T00:23:01;101404.61;;;11.80;68.64
56582;BME280;42463;52.214;21.238;2022-10-28T00:25:26;101404.82;;;11.80;68.70
56582;BME280;42463;52.214;21.238;2022-10-28T00:27:50;101402.84;;;11.78;68.43
56582;BME280;42463;52.214;21.238;2022-10-28T00:30:15;101395.86;;;11.75;68.59
56582;BME280;42463;52.214;21.238;2022-10-28T00:32:40;101391.58;;;11.73;68.54
56582;BME280;42463;52.214;21.238;2022-10-28T00:35:06;101391.67;;;11.70;68.42
56582;BME280;42463;52.214;21.238;2022-10-28T00:37:30;101393.21;;;11.69;68.87
56582;BME280;42463;52.214;21.238;2022-10-28T00:39:54;101387.50;;;11.66;69.23
56582;BME280;42463;52.214;21.238;2022-10-28T00:42:20;101389.73;;;11.66;69.37
56582;BME280;42463;52.214;21.238;2022-10-28T00:44:53;101388.89;;;11.67;69.81
56582;BME280;42463;52.214;21.238;2022-10-28T00:47:25;101388.38;;;11.68;69.72
56582;BME280;42463;52.214;21.238;2022-10-28T00:49:54;101385.08;;;11.70;69.68
56582;BME280;42463;52.214;21.238;2022-10-28T00:52:22;101383.30;;;11.71;69.57
56582;BME280;42463;52.214;21.238;2022-10-28T00:54:48;101380.83;;;11.71;69.48
56582;BME280;42463;52.214;21.238;2022-10-28T00:57:17;101381.79;;;11.71;69.57
56582;BME280;42463;52.214;21.238;2022-10-28T00:59:47;101379.27;;;11.74;69.97
56582;BME280;42463;52.214;21.238;2022-10-28T01:02:43;101371.33;;;11.84;70.12
56582;BME280;42463;52.214;21.238;2022-10-28T01:05:10;101370.50;;;11.88;70.11
56582;BME280;42463;52.214;21.238;2022-10-28T01:07:35;101374.96;;;11.88;69.88
56582;BME280;42463;52.214;21.238;2022-10-28T01:09:59;101375.24;;;11.89;69.98
56582;BME280;42463;52.214;21.238;2022-10-28T01:12:29;101373.83;;;11.89;69.98
56582;BME280;42463;52.214;21.238;2022-10-28T01:15:05;101375.51;;;11.88;70.14
56582;BME280;42463;52.214;21.238;2022-10-28T01:17:43;101372.61;;;11.87;70.10
56582;BME280;42463;52.214;21.238;2022-10-28T01:20:37;101372.70;;;11.86;70.15
56582;BME280;42463;52.214;21.238;2022-10-28T01:23:06;101371.73;;;11.85;70.10
56582;BME280;42463;52.214;21.238;2022-10-28T01:25:58;101368.94;;;11.84;70.06
56582;BME280;42463;52.214;21.238;2022-10-28T01:31:31;101364.71;;;11.82;70.19
56582;BME280;42463;52.214;21.238;2022-10-28T01:34:04;101367.60;;;11.82;70.39
56582;BME280;42463;52.214;21.238;2022-10-28T01:36:35;101366.02;;;11.84;70.53
56582;BME280;42463;52.214;21.238;2022-10-28T01:39:05;101364.33;;;11.87;70.49
56582;BME280;42463;52.214;21.238;2022-10-28T01:41:35;101365.08;;;11.89;70.75
56582;BME280;42463;52.214;21.238;2022-10-28T01:44:05;101361.60;;;11.91;70.81
56582;BME280;42463;52.214;21.238;2022-10-28T01:46:36;101364.77;;;11.92;70.95
56582;BME280;42463;52.214;21.238;2022-10-28T01:49:07;101367.10;;;11.94;71.36
56582;BME280;42463;52.214;21.238;2022-10-28T01:51:34;101364.94;;;11.98;71.04
56582;BME280;42463;52.214;21.238;2022-10-28T01:54:02;101361.21;;;11.96;70.77
56582;BME280;42463;52.214;21.238;2022-10-28T01:56:32;101360.61;;;11.96;70.79
56582;BME280;42463;52.214;21.238;2022-10-28T01:58:59;101354.75;;;11.99;71.29
56582;BME280;42463;52.214;21.238;2022-10-28T02:01:26;101358.23;;;12.02;71.34
56582;BME280;42463;52.214;21.238;2022-10-28T02:03:52;101363.11;;;12.07;71.48
56582;BME280;42463;52.214;21.238;2022-10-28T02:06:19;101360.63;;;12.08;71.40
56582;BME280;42463;52.214;21.238;2022-10-28T02:08:53;101360.77;;;12.07;71.18
56582;BME280;42463;52.214;21.238;2022-10-28T02:11:44;101361.11;;;12.05;70.97
56582;BME280;42463;52.214;21.238;2022-10-28T02:14:28;101363.20;;;12.05;71.34
56582;BME280;42463;52.214;21.238;2022-10-28T02:16:59;101364.75;;;12.09;71.43
56582;BME280;42463;52.214;21.238;2022-10-28T02:19:32;101357.51;;;12.09;71.44
56582;BME280;42463;52.214;21.238;2022-10-28T02:22:09;101353.77;;;12.07;71.35
56582;BME280;42463;52.214;21.238;2022-10-28T02:24:46;101355.66;;;12.07;71.35
56582;BME280;42463;52.214;21.238;2022-10-28T02:27:17;101350.91;;;12.08;71.68
56582;BME280;42463;52.214;21.238;2022-10-28T02:29:48;101349.31;;;12.10;71.77
56582;BME280;42463;52.214;21.238;2022-10-28T02:32:16;101346.01;;;12.11;71.64
56582;BME280;42463;52.214;21.238;2022-10-28T02:34:45;101339.89;;;12.15;71.61
56582;BME280;42463;52.214;21.238;2022-10-28T02:37:13;101337.38;;;12.15;71.45
56582;BME280;42463;52.214;21.238;2022-10-28T02:39:43;101336.29;;;12.15;71.44
56582;BME280;42463;52.214;21.238;2022-10-28T02:42:13;101331.19;;;12.15;71.66
56582;BME280;42463;52.214;21.238;2022-10-28T02:44:42;101327.06;;;12.16;71.44
56582;BME280;42463;52.214;21.238;2022-10-28T02:47:10;101322.34;;;12.13;71.23
56582;BME280;42463;52.214;21.238;2022-10-28T02:49:40;101325.01;;;12.10;70.96
56582;BME280;42463;52.214;21.238;2022-10-28T02:52:07;101322.89;;;12.08;71.21
56582;BME280;42463;52.214;21.238;2022-10-28T02:54:37;101320.63;;;12.06;71.38
56582;BME280;42463;52.214;21.238;2022-10-28T02:57:05;101323.17;;;12.06;71.33
56582;BME280;42463;52.214;21.238;2022-10-28T02:59:31;101319.48;;;12.06;71.40
56582;BME280;42463;52.214;21.238;2022-10-28T03:01:55;101322.10;;;12.07;71.30
56582;BME280;42463;52.214;21.238;2022-10-28T03:04:20;101318.73;;;12.07;71.43
56582;BME280;42463;52.214;21.238;2022-10-28T03:06:44;101314.64;;;12.06;71.21
56582;BME280;42463;52.214;21.238;2022-10-28T03:09:09;101317.52;;;12.04;71.24
56582;BME280;42463;52.214;21.238;2022-10-28T03:11:34;101318.33;;;12.02;71.30
56582;BME280;42463;52.214;21.238;2022-10-28T03:13:58;101317.59;;;12.01;71.09
56582;BME280;42463;52.214;21.238;2022-10-28T03:16:23;101321.57;;;11.99;71.36
56582;BME280;42463;52.214;21.238;2022-10-28T03:18:49;101321.42;;;12.00;71.40
56582;BME280;42463;52.214;21.238;2022-10-28T03:21:13;101319.03;;;12.00;71.48
56582;BME280;42463;52.214;21.238;2022-10-28T03:23:37;101317.06;;;12.02;71.57
56582;BME280;42463;52.214;21.238;2022-10-28T03:26:02;101319.69;;;12.03;71.58
56582;BME280;42463;52.214;21.238;2022-10-28T03:28:26;101316.56;;;12.04;71.69
56582;BME280;42463;52.214;21.238;2022-10-28T03:30:50;101318.07;;;12.06;71.48
56582;BME280;42463;52.214;21.238;2022-10-28T03:33:15;101322.80;;;12.06;71.25
56582;BME280;42463;52.214;21.238;2022-10-28T03:35:39;101322.23;;;12.05;71.20
56582;BME280;42463;52.214;21.238;2022-10-28T03:38:06;101324.98;;;12.04;71.25
56582;BME280;42463;52.214;21.238;2022-10-28T03:40:31;101321.38;;;12.03;71.23
56582;BME280;42463;52.214;21.238;2022-10-28T03:42:56;101319.41;;;12.02;71.17
56582;BME280;42463;52.214;21.238;2022-10-28T03:45:20;101317.92;;;12.01;71.04
56582;BME280;42463;52.214;21.238;2022-10-28T03:47:45;101316.15;;;12.00;71.21
56582;BME280;42463;52.214;21.238;2022-10-28T03:50:10;101309.92;;;11.98;70.91
56582;BME280;42463;52.214;21.238;2022-10-28T03:52:34;101306.44;;;11.96;70.92
56582;BME280;42463;52.214;21.238;2022-10-28T03:54:57;101303.96;;;11.95;70.86
56582;BME280;42463;52.214;21.238;2022-10-28T03:57:21;101302.31;;;11.94;70.73
56582;BME280;42463;52.214;21.238;2022-10-28T03:59:45;101297.92;;;11.92;70.68
56582;BME280;42463;52.214;21.238;2022-10-28T04:02:09;101296.58;;;11.90;70.45
56582;BME280;42463;52.214;21.238;2022-10-28T04:04:34;101296.05;;;11.88;70.48
56582;BME280;42463;52.214;21.238;2022-10-28T04:06:58;101298.25;;;11.86;70.48
56582;BME280;42463;52.214;21.238;2022-10-28T04:09:21;101304.12;;;11.83;70.47
56582;BME280;42463;52.214;21.238;2022-10-28T04:11:47;101297.67;;;11.82;70.41
56582;BME280;42463;52.214;21.238;2022-10-28T04:14:12;101300.84;;;11.80;70.65
56582;BME280;42463;52.214;21.238;2022-10-28T04:16:36;101305.56;;;11.79;70.42
56582;BME280;42463;52.214;21.238;2022-10-28T04:19:00;101298.63;;;11.76;70.40
56582;BME280;42463;52.214;21.238;2022-10-28T04:21:24;101299.46;;;11.77;70.61
56582;BME280;42463;52.214;21.238;2022-10-28T04:23:49;101299.94;;;11.81;70.75
56582;BME280;42463;52.214;21.238;2022-10-28T04:26:13;101295.31;;;11.80;70.31
56582;BME280;42463;52.214;21.238;2022-10-28T04:28:37;101293.83;;;11.77;70.09
56582;BME280;42463;52.214;21.238;2022-10-28T04:31:02;101291.64;;;11.75;70.19
56582;BME280;42463;52.214;21.238;2022-10-28T04:33:26;101291.66;;;11.74;70.19
56582;BME280;42463;52.214;21.238;2022-10-28T04:35:50;101294.55;;;11.71;70.31
56582;BME280;42463;52.214;21.238;2022-10-28T04:38:14;101293.70;;;11.70;70.29
56582;BME280;42463;52.214;21.238;2022-10-28T04:40:39;101294.25;;;11.68;70.44
56582;BME280;42463;52.214;21.238;2022-10-28T04:43:05;101301.77;;;11.66;70.54
56582;BME280;42463;52.214;21.238;2022-10-28T04:45:31;101301.98;;;11.66;70.63
56582;BME280;42463;52.214;21.238;2022-10-28T04:47:58;101301.85;;;11.64;70.43
56582;BME280;42463;52.214;21.238;2022-10-28T04:50:22;101302.83;;;11.61;70.60
56582;BME280;42463;52.214;21.238;2022-10-28T04:52:45;101300.61;;;11.60;70.64
56582;BME280;42463;52.214;21.238;2022-10-28T04:55:10;101305.48;;;11.59;70.74
56582;BME280;42463;52.214;21.238;2022-10-28T04:57:34;101307.58;;;11.58;70.95
56582;BME280;42463;52.214;21.238;2022-10-28T04:59:59;101304.05;;;11.61;70.97
56582;BME280;42463;52.214;21.238;2022-10-28T05:02:24;101304.13;;;11.61;70.94
56582;BME280;42463;52.214;21.238;2022-10-28T05:04:48;101304.42;;;11.63;71.15
56582;BME280;42463;52.214;21.238;2022-10-28T05:07:12;101303.90;;;11.64;70.87
56582;BME280;42463;52.214;21.238;2022-10-28T05:09:37;101299.98;;;11.66;71.32
56582;BME280;42463;52.214;21.238;2022-10-28T05:12:01;101296.25;;;11.70;71.25
56582;BME280;42463;52.214;21.238;2022-10-28T05:14:25;101293.10;;;11.75;70.85
56582;BME280;42463;52.214;21.238;2022-10-28T05:16:50;101281.78;;;11.74;70.78
56582;BME280;42463;52.214;21.238;2022-10-28T05:19:15;101281.12;;;11.79;71.03
56582;BME280;42463;52.214;21.238;2022-10-28T05:21:40;101282.27;;;11.84;71.04
56582;BME280;42463;52.214;21.238;2022-10-28T05:24:05;101281.72;;;11.87;70.87
56582;BME280;42463;52.214;21.238;2022-10-28T05:26:29;101282.04;;;11.86;70.55
56582;BME280;42463;52.214;21.238;2022-10-28T05:28:53;101277.45;;;11.85;70.88
56582;BME280;42463;52.214;21.238;2022-10-28T05:31:18;101278.73;;;11.83;70.53
56582;BME280;42463;52.214;21.238;2022-10-28T05:33:42;101276.56;;;11.81;70.61
56582;BME280;42463;52.214;21.238;2022-10-28T05:36:07;101274.13;;;11.81;70.59
56582;BME280;42463;52.214;21.238;2022-10-28T05:38:31;101272.66;;;11.82;70.60
56582;BME280;42463;52.214;21.238;2022-10-28T05:40:55;101262.72;;;11.77;70.36
56582;BME280;42463;52.214;21.238;2022-10-28T05:43:20;101268.85;;;11.77;70.77
56582;BME280;42463;52.214;21.238;2022-10-28T05:45:44;101264.41;;;11.78;70.70
56582;BME280;42463;52.214;21.238;2022-10-28T05:48:14;101263.93;;;11.76;70.61
56582;BME280;42463;52.214;21.238;2022-10-28T05:50:38;101268.75;;;11.75;70.92
56582;BME280;42463;52.214;21.238;2022-10-28T05:53:03;101272.95;;;11.80;71.05
56582;BME280;42463;52.214;21.238;2022-10-28T05:55:27;101273.89;;;11.80;70.68
56582;BME280;42463;52.214;21.238;2022-10-28T05:57:54;101272.95;;;11.80;70.69
56582;BME280;42463;52.214;21.238;2022-10-28T06:00:20;101268.10;;;11.79;70.62
56582;BME280;42463;52.214;21.238;2022-10-28T06:02:45;101273.52;;;11.79;70.88
56582;BME280;42463;52.214;21.238;2022-10-28T06:05:09;101268.08;;;11.78;70.80
56582;BME280;42463;52.214;21.238;2022-10-28T06:07:34;101272.62;;;11.79;71.19
56582;BME280;42463;52.214;21.238;2022-10-28T06:09:58;101269.38;;;11.83;71.16
56582;BME280;42463;52.214;21.238;2022-10-28T06:12:23;101268.32;;;11.87;71.37
56582;BME280;42463;52.214;21.238;2022-10-28T06:14:47;101261.61;;;11.92;71.27
56582;BME280;42463;52.214;21.238;2022-10-28T06:17:13;101256.63;;;11.96;71.32
56582;BME280;42463;52.214;21.238;2022-10-28T06:19:37;101255.21;;;11.99;71.34
56582;BME280;42463;52.214;21.238;2022-10-28T06:22:01;101255.41;;;12.04;71.34
56582;BME280;42463;52.214;21.238;2022-10-28T06:24:26;101257.42;;;12.07;71.50
56582;BME280;42463;52.214;21.238;2022-10-28T06:26:50;101253.04;;;12.08;70.95
56582;BME280;42463;52.214;21.238;2022-10-28T06:29:14;101253.95;;;12.07;71.10
56582;BME280;42463;52.214;21.238;2022-10-28T06:31:40;101253.11;;;12.05;70.97
56582;BME280;42463;52.214;21.238;2022-10-28T06:34:04;101253.09;;;12.04;71.13
56582;BME280;42463;52.214;21.238;2022-10-28T06:36:29;101253.67;;;12.04;71.43
56582;BME280;42463;52.214;21.238;2022-10-28T06:38:54;101252.27;;;12.04;71.17
56582;BME280;42463;52.214;21.238;2022-10-28T06:41:18;101250.89;;;12.03;71.36
56582;BME280;42463;52.214;21.238;2022-10-28T06:43:42;101250.64;;;12.07;71.65
56582;BME280;42463;52.214;21.238;2022-10-28T06:46:07;101252.01;;;12.08;71.75
56582;BME280;42463;52.214;21.238;2022-10-28T06:48:31;101244.83;;;12.11;71.80
56582;BME280;42463;52.214;21.238;2022-10-28T06:50:56;101239.41;;;12.15;72.14
56582;BME280;42463;52.214;21.238;2022-10-28T06:53:20;101242.55;;;12.21;71.95
56582;BME280;42463;52.214;21.238;2022-10-28T06:55:52;101242.43;;;12.26;71.88
56582;BME280;42463;52.214;21.238;2022-10-28T06:58:16;101245.98;;;12.26;71.67
56582;BME280;42463;52.214;21.238;2022-10-28T07:00:42;101248.75;;;12.24;71.61
56582;BME280;42463;52.214;21.238;2022-10-28T07:03:23;101252.27;;;12.22;72.09
56582;BME280;42463;52.214;21.238;2022-10-28T07:05:49;101251.69;;;12.24;72.14
56582;BME280;42463;52.214;21.238;2022-10-28T07:08:13;101255.73;;;12.24;72.23
56582;BME280;42463;52.214;21.238;2022-10-28T07:10:39;101256.23;;;12.28;72.44
56582;BME280;42463;52.214;21.238;2022-10-28T07:13:04;101259.45;;;12.31;72.79
56582;BME280;42463;52.214;21.238;2022-10-28T07:15:28;101260.02;;;12.33;72.72
56582;BME280;42463;52.214;21.238;2022-10-28T07:17:57;101259.39;;;12.37;73.23
56582;BME280;42463;52.214;21.238;2022-10-28T07:20:23;101254.19;;;12.45;73.44
56582;BME280;42463;52.214;21.238;2022-10-28T07:22:47;101255.86;;;12.52;73.61
56582;BME280;42463;52.214;21.238;2022-10-28T07:25:11;101251.67;;;12.55;73.46
56582;BME280;42463;52.214;21.238;2022-10-28T07:27:36;101253.45;;;12.58;73.72
56582;BME280;42463;52.214;21.238;2022-10-28T07:30:00;101254.65;;;12.61;73.77
56582;BME280;42463;52.214;21.238;2022-10-28T07:32:25;101257.25;;;12.63;73.66
56582;BME280;42463;52.214;21.238;2022-10-28T07:34:49;101261.60;;;12.63;73.85
56582;BME280;42463;52.214;21.238;2022-10-28T07:37:13;101260.30;;;12.67;74.21
56582;BME280;42463;52.214;21.238;2022-10-28T07:39:38;101261.16;;;12.69;74.41
56582;BME280;42463;52.214;21.238;2022-10-28T07:42:02;101256.67;;;12.74;74.38
56582;BME280;42463;52.214;21.238;2022-10-28T07:44:26;101253.87;;;12.81;74.45
56582;BME280;42463;52.214;21.238;2022-10-28T07:46:50;101253.21;;;12.87;74.68
56582;BME280;42463;52.214;21.238;2022-10-28T07:49:15;101249.31;;;12.92;74.41
56582;BME280;42463;52.214;21.238;2022-10-28T07:51:39;101245.90;;;12.94;74.68
56582;BME280;42463;52.214;21.238;2022-10-28T07:54:04;101238.72;;;12.98;74.65
56582;BME280;42463;52.214;21.238;2022-10-28T07:56:28;101236.43;;;13.02;74.82
56582;BME280;42463;52.214;21.238;2022-10-28T07:58:53;101232.86;;;13.07;74.55
56582;BME280;42463;52.214;21.238;2022-10-28T08:01:19;101229.81;;;13.11;74.70
56582;BME280;42463;52.214;21.238;2022-10-28T08:03:44;101225.88;;;13.14;74.78
56582;BME280;42463;52.214;21.238;2022-10-28T08:06:11;101225.23;;;13.17;74.87
56582;BME280;42463;52.214;21.238;2022-10-28T08:08:36;101226.30;;;13.23;75.07
56582;BME280;42463;52.214;21.238;2022-10-28T08:11:09;101226.48;;;13.28;74.97
56582;BME280;42463;52.214;21.238;2022-10-28T08:13:33;101230.45;;;13.32;74.93
56582;BME280;42463;52.214;21.238;2022-10-28T08:15:57;101234.60;;;13.36;75.05
56582;BME280;42463;52.214;21.238;2022-10-28T08:18:22;101236.80;;;13.43;75.02
56582;BME280;42463;52.214;21.238;2022-10-28T08:20:47;101240.54;;;13.49;74.86
56582;BME280;42463;52.214;21.238;2022-10-28T08:23:11;101239.55;;;13.55;74.94
56582;BME280;42463;52.214;21.238;2022-10-28T08:25:35;101233.42;;;13.62;74.93
56582;BME280;42463;52.214;21.238;2022-10-28T08:28:00;101232.80;;;13.66;74.22
56582;BME280;42463;52.214;21.238;2022-10-28T08:30:24;101226.98;;;13.66;74.15
56582;BME280;42463;52.214;21.238;2022-10-28T08:32:48;101225.56;;;13.65;73.85
56582;BME280;42463;52.214;21.238;2022-10-28T08:35:13;101221.16;;;13.67;74.12
56582;BME280;42463;52.214;21.238;2022-10-28T08:37:38;101221.14;;;13.70;74.48
56582;BME280;42463;52.214;21.238;2022-10-28T08:40:02;101225.43;;;13.79;74.25
56582;BME280;42463;52.214;21.238;2022-10-28T08:42:36;101224.83;;;13.84;74.38
56582;BME280;42463;52.214;21.238;2022-10-28T08:45:15;101223.97;;;13.90;74.09
56582;BME280;42463;52.214;21.238;2022-10-28T08:47:47;101219.90;;;13.98;74.68
56582;BME280;42463;52.214;21.238;2022-10-28T08:50:16;101223.39;;;14.03;74.16
56582;BME280;42463;52.214;21.238;2022-10-28T08:52:46;101224.32;;;14.09;74.00
56582;BME280;42463;52.214;21.238;2022-10-28T08:55:16;101224.88;;;14.15;74.03
56582;BME280;42463;52.214;21.238;2022-10-28T08:57:44;101225.52;;;14.20;73.90
56582;BME280;42463;52.214;21.238;2022-10-28T09:00:18;101220.45;;;14.26;74.06
56582;BME280;42463;52.214;21.238;2022-10-28T09:02:51;101216.84;;;14.31;73.84
56582;BME280;42463;52.214;21.238;2022-10-28T09:05:21;101219.52;;;14.39;73.93
56582;BME280;42463;52.214;21.238;2022-10-28T09:07:46;101218.23;;;14.45;73.79
56582;BME280;42463;52.214;21.238;2022-10-28T09:10:14;101214.17;;;14.49;73.61
56582;BME280;42463;52.214;21.238;2022-10-28T09:12:43;101215.39;;;14.56;73.76
56582;BME280;42463;52.214;21.238;2022-10-28T09:15:27;101209.56;;;14.61;73.71
56582;BME280;42463;52.214;21.238;2022-10-28T09:17:59;101208.77;;;14.66;73.31
56582;BME280;42463;52.214;21.238;2022-10-28T09:20:31;101206.28;;;14.70;73.28
56582;BME280;42463;52.214;21.238;2022-10-28T09:23:06;101209.16;;;14.75;73.47
56582;BME280;42463;52.214;21.238;2022-10-28T09:25:41;101208.77;;;14.81;73.15
56582;BME280;42463;52.214;21.238;2022-10-28T09:28:34;101212.23;;;14.83;73.03
56582;BME280;42463;52.214;21.238;2022-10-28T09:31:06;101208.80;;;14.86;72.96
56582;BME280;42463;52.214;21.238;2022-10-28T09:36:15;101208.16;;;14.89;72.88
56582;BME280;42463;52.214;21.238;2022-10-28T09:38:42;101206.28;;;14.95;73.26
56582;BME280;42463;52.214;21.238;2022-10-28T09:41:12;101205.90;;;15.04;73.12
56582;BME280;42463;52.214;21.238;2022-10-28T09:43:41;101207.07;;;15.08;73.00
56582;BME280;42463;52.214;21.238;2022-10-28T09:46:12;101204.59;;;15.13;72.94
56582;BME280;42463;52.214;21.238;2022-10-28T09:48:40;101205.42;;;15.17;72.76
56582;BME280;42463;52.214;21.238;2022-10-28T09:51:05;101204.64;;;15.23;73.04
56582;BME280;42463;52.214;21.238;2022-10-28T09:53:38;101202.60;;;15.34;73.07
56582;BME280;42463;52.214;21.238;2022-10-28T09:56:04;101197.84;;;15.48;73.01
56582;BME280;42463;52.214;21.238;2022-10-28T09:58:29;101196.23;;;15.59;72.97
56582;BME280;42463;52.214;21.238;2022-10-28T10:00:54;101191.80;;;15.70;72.62
56582;BME280;42463;52.214;21.238;2022-10-28T10:03:19;101189.20;;;15.80;72.15
56582;BME280;42463;52.214;21.238;2022-10-28T10:05:49;101187.62;;;15.82;71.71
56582;BME280;42463;52.214;21.238;2022-10-28T10:08:17;101188.98;;;15.86;71.61
56582;BME280;42463;52.214;21.238;2022-10-28T10:10:49;101183.81;;;15.93;71.71
56582;BME280;42463;52.214;21.238;2022-10-28T10:13:19;101183.77;;;15.98;71.23
56582;BME280;42463;52.214;21.238;2022-10-28T10:15:48;101183.70;;;16.02;70.94
56582;BME280;42463;52.214;21.238;2022-10-28T10:18:19;101182.08;;;16.05;70.75
56582;BME280;42463;52.214;21.238;2022-10-28T10:20:48;101178.63;;;16.10;70.99
56582;BME280;42463;52.214;21.238;2022-10-28T10:23:23;101173.60;;;16.18;71.11
56582;BME280;42463;52.214;21.238;2022-10-28T10:25:54;101174.85;;;16.27;71.18
56582;BME280;42463;52.214;21.238;2022-10-28T10:28:21;101173.92;;;16.39;70.73
56582;BME280;42463;52.214;21.238;2022-10-28T10:30:50;101172.00;;;16.50;70.83
56582;BME280;42463;52.214;21.238;2022-10-28T10:33:19;101170.08;;;16.63;70.52
56582;BME280;42463;52.214;21.238;2022-10-28T10:35:51;101169.95;;;16.75;70.21
56582;BME280;42463;52.214;21.238;2022-10-28T10:38:16;101169.63;;;16.92;70.29
56582;BME280;42463;52.214;21.238;2022-10-28T10:40:47;101166.79;;;17.06;69.84
56582;BME280;42463;52.214;21.238;2022-10-28T10:43:21;101163.15;;;17.13;68.73
56582;BME280;42463;52.214;21.238;2022-10-28T10:45:51;101163.12;;;17.20;68.74
56582;BME280;42463;52.214;21.238;2022-10-28T10:48:16;101168.13;;;17.31;68.61
56582;BME280;42463;52.214;21.238;2022-10-28T10:50:41;101164.48;;;17.46;68.81
56582;BME280;42463;52.214;21.238;2022-10-28T10:53:14;101161.88;;;17.63;67.96
56582;BME280;42463;52.214;21.238;2022-10-28T10:55:40;101157.20;;;17.75;67.31
56582;BME280;42463;52.214;21.238;2022-10-28T10:58:06;101150.95;;;17.89;67.74
56582;BME280;42463;52.214;21.238;2022-10-28T11:00:42;101149.23;;;18.05;66.93
56582;BME280;42463;52.214;21.238;2022-10-28T11:03:16;101146.93;;;18.19;66.92
56582;BME280;42463;52.214;21.238;2022-10-28T11:05:50;101145.12;;;18.37;66.66
56582;BME280;42463;52.214;21.238;2022-10-28T11:08:26;101144.83;;;18.52;65.22
56582;BME280;42463;52.214;21.238;2022-10-28T11:11:03;101138.24;;;18.63;64.96
56582;BME280;42463;52.214;21.238;2022-10-28T11:13:28;101133.39;;;18.84;65.36
56582;BME280;42463;52.214;21.238;2022-10-28T11:16:01;101124.92;;;19.11;64.91
56582;BME280;42463;52.214;21.238;2022-10-28T11:18:26;101119.70;;;19.44;64.06
56582;BME280;42463;52.214;21.238;2022-10-28T11:20:56;101121.33;;;19.79;62.94
56582;BME280;42463;52.214;21.238;2022-10-28T11:23:39;101116.32;;;20.20;61.64
56582;BME280;42463;52.214;21.238;2022-10-28T11:26:12;101115.41;;;20.92;60.66
56582;BME280;42463;52.214;21.238;2022-10-28T11:28:45;101111.52;;;21.77;59.11
56582;BME280;42463;52.214;21.238;2022-10-28T11:31:25;101106.77;;;22.69;57.31
56582;BME280;42463;52.214;21.238;2022-10-28T11:34:07;101106.20;;;23.64;55.57
56582;BME280;42463;52.214;21.238;2022-10-28T11:36:38;101097.45;;;24.56;53.25
56582;BME280;42463;52.214;21.238;2022-10-28T11:39:28;101094.98;;;25.41;50.40
56582;BME280;42463;52.214;21.238;2022-10-28T11:42:05;101100.64;;;26.23;47.16
56582;BME280;42463;52.214;21.238;2022-10-28T11:44:42;101104.49;;;26.81;46.32
56582;BME280;42463;52.214;21.238;2022-10-28T11:50:04;101094.50;;;28.02;43.60
56582;BME280;42463;52.214;21.238;2022-10-28T11:52:47;101091.16;;;28.58;42.74
56582;BME280;42463;52.214;21.238;2022-10-28T11:55:19;101092.44;;;29.15;41.15
56582;BME280;42463;52.214;21.238;2022-10-28T11:57:51;101089.89;;;29.64;40.15
56582;BME280;42463;52.214;21.238;2022-10-28T12:00:35;101094.80;;;30.08;38.69
56582;BME280;42463;52.214;21.238;2022-10-28T12:03:20;101093.41;;;30.52;38.32
56582;BME280;42463;52.214;21.238;2022-10-28T12:05:54;101094.48;;;30.92;36.69
56582;BME280;42463;52.214;21.238;2022-10-28T12:08:36;101086.70;;;31.06;36.28
56582;BME280;42463;52.214;21.238;2022-10-28T12:11:22;101086.08;;;31.25;35.13
56582;BME280;42463;52.214;21.238;2022-10-28T12:13:57;101088.72;;;31.48;35.10
56582;BME280;42463;52.214;21.238;2022-10-28T12:16:24;101089.30;;;31.79;34.72
56582;BME280;42463;52.214;21.238;2022-10-28T12:18:56;101083.66;;;32.03;33.89
56582;BME280;42463;52.214;21.238;2022-10-28T12:21:26;101081.55;;;32.28;33.62
56582;BME280;42463;52.214;21.238;2022-10-28T12:23:53;101077.62;;;32.62;33.84
56582;BME280;42463;52.214;21.238;2022-10-28T12:26:20;101071.20;;;32.90;33.04
56582;BME280;42463;52.214;21.238;2022-10-28T12:28:50;101070.67;;;33.07;31.89
56582;BME280;42463;52.214;21.238;2022-10-28T12:31:23;101068.60;;;33.11;32.12
56582;BME280;42463;52.214;21.238;2022-10-28T12:33:50;101066.46;;;33.27;31.82
56582;BME280;42463;52.214;21.238;2022-10-28T12:36:21;101061.90;;;33.38;31.26
56582;BME280;42463;52.214;21.238;2022-10-28T12:38:55;101064.48;;;33.39;31.21
56582;BME280;42463;52.214;21.238;2022-10-28T12:41:23;101058.77;;;33.38;30.32
56582;BME280;42463;52.214;21.238;2022-10-28T12:43:50;101058.27;;;33.31;31.03
56582;BME280;42463;52.214;21.238;2022-10-28T12:46:21;101055.33;;;33.07;30.54
56582;BME280;42463;52.214;21.238;2022-10-28T12:48:54;101054.31;;;32.42;30.73
56582;BME280;42463;52.214;21.238;2022-10-28T12:51:24;101057.11;;;31.35;31.86
56582;BME280;42463;52.214;21.238;2022-10-28T12:53:54;101052.69;;;30.22;32.89